Stanton, Michigan
Current Conditions -  °F | °C
As of 11:13 AM on Tuesday 21 Oct 2014 (Local Time) from KAMN Reporting Station
Overcast Overcast  
Wind Chill: 42°   Ceiling: 1900
Heat Index: 46°   Visibility: 10mi
Dew Point: 39°   Wind: 7mph
Humidity: 76%   Direction: 360°N
Pressure: 30.11"   Gusts: NA
Location:  43.29°N, 85.08°W
Report Text: KAMN 211513Z AUTO 36006KT 10SM OVC019 08/04 A3011 RMK AO2 T00770038
Loading
Personal Weather Stations






























Interactive Weather Map
Tropical Storm Tracking
New forecast layout! Learn more

10-Day Weather Forecast

Advertisements
Track Severe Weather on mobile